createdAt,value
2018-01-30T00:03:32.707Z," 7.02"
2018-01-30T00:08:32.025Z," 7.06"
2018-01-30T00:13:26.842Z," 7.00"
2018-01-30T00:18:22.658Z," 7.11"
2018-01-30T00:23:20.597Z," 6.97"
2018-01-30T00:28:15.408Z," 7.02"
2018-01-30T00:33:11.317Z," 7.05"
2018-01-30T00:38:12.295Z," 7.06"
2018-01-30T00:43:08.016Z," 7.07"
2018-01-30T00:48:08.194Z," 7.03"
2018-01-30T00:53:07.412Z," 6.92"
2018-01-30T00:58:03.611Z," 6.96"
2018-01-30T01:03:03.663Z," 6.82"
2018-01-30T01:07:59.745Z," 6.84"
2018-01-30T01:17:56.373Z," 6.74"
2018-01-30T01:22:56.948Z," 6.48"
2018-01-30T01:27:57.172Z," 6.54"
2018-01-30T01:32:56.901Z," 6.63"
2018-01-30T01:37:57.291Z," 6.60"
2018-01-30T01:42:56.752Z," 6.41"
2018-01-30T01:47:53.631Z," 6.46"
2018-01-30T01:52:53.864Z," 6.26"
2018-01-30T01:57:53.789Z," 6.24"
2018-01-30T02:02:53.397Z," 6.20"
2018-01-30T02:07:52.392Z," 6.12"
2018-01-30T02:12:49.264Z," 5.91"
2018-01-30T02:17:51.388Z," 5.87"
2018-01-30T02:22:46.174Z," 5.99"
2018-01-30T02:27:41.955Z," 5.91"
2018-01-30T02:32:41.736Z," 5.75"
2018-01-30T02:37:37.658Z," 5.75"
2018-01-30T02:42:33.640Z," 5.76"
2018-01-30T02:47:35.252Z," 5.61"
2018-01-30T02:52:34.873Z," 5.59"
2018-01-30T02:57:35.533Z," 5.54"
2018-01-30T03:02:35.283Z," 5.59"
2018-01-30T03:07:34.884Z," 5.51"
2018-01-30T03:12:33.512Z," 5.29"
2018-01-30T03:17:32.492Z," 5.17"
2018-01-30T03:22:28.944Z," 5.29"
2018-01-30T03:27:29.261Z," 5.20"
2018-01-30T03:32:23.844Z," 5.18"
2018-01-30T03:37:24.592Z," 5.02"
2018-01-30T03:42:23.129Z," 4.94"
2018-01-30T03:47:22.822Z," 5.04"
2018-01-30T03:52:21.729Z," 4.99"
2018-01-30T03:57:21.848Z," 4.97"
2018-01-30T04:02:17.654Z," 5.07"
2018-01-30T04:07:13.699Z," 4.90"
2018-01-30T04:12:14.333Z," 4.99"
2018-01-30T04:17:14.312Z," 4.84"
2018-01-30T04:27:15.064Z," 4.70"
2018-01-30T04:32:10.595Z," 4.73"
2018-01-30T04:37:11.271Z," 4.66"
2018-01-30T04:42:09.968Z," 4.73"
2018-01-30T04:47:09.745Z," 4.58"
2018-01-30T04:52:04.714Z," 4.68"
2018-01-30T04:57:00.569Z," 4.75"
2018-01-30T05:02:01.415Z," 4.55"
2018-01-30T05:07:00.361Z," 4.58"
2018-01-30T05:12:00.215Z," 4.73"
2018-01-30T05:16:58.297Z," 4.71"
2018-01-30T05:21:57.150Z," 4.67"
2018-01-30T05:26:52.986Z," 4.71"
2018-01-30T05:31:52.590Z," 4.78"
2018-01-30T05:36:51.571Z," 4.77"
2018-01-30T05:41:46.728Z," 4.74"
2018-01-30T05:46:48.361Z," 4.66"
2018-01-30T05:56:49.700Z," 4.73"
2018-01-30T06:01:46.035Z," 4.66"
2018-01-30T06:06:46.328Z," 4.50"
2018-01-30T06:11:42.282Z," 4.78"
2018-01-30T06:16:43.289Z," 4.58"
2018-01-30T06:21:39.140Z," 4.44"
2018-01-30T06:26:34.707Z," 4.26"
2018-01-30T06:31:30.244Z," 4.37"
2018-01-30T06:36:26.847Z," 4.28"
2018-01-30T06:41:26.213Z," 4.55"
2018-01-30T06:46:25.218Z," 4.22"
2018-01-30T06:51:25.350Z," 4.24"
2018-01-30T06:56:19.906Z," 4.23"
2018-01-30T07:01:15.429Z," 4.31"
2018-01-30T07:06:15.024Z," 4.42"
2018-01-30T07:11:09.935Z," 4.32"
2018-01-30T07:16:09.457Z," 4.35"
2018-01-30T07:21:09.886Z," 4.32"
2018-01-30T07:26:04.565Z," 4.23"
2018-01-30T07:31:04.622Z," 4.35"
2018-01-30T07:41:05.217Z," 4.45"
2018-01-30T07:51:05.351Z," 4.44"
2018-01-30T08:01:06.288Z," 4.40"
2018-01-30T08:06:01.975Z," 4.66"
2018-01-30T08:10:59.594Z," 4.53"
2018-01-30T08:15:56.478Z," 4.84"
2018-01-30T08:20:52.152Z," 4.66"
2018-01-30T08:25:50.016Z," 4.80"
2018-01-30T08:30:46.300Z," 4.86"
2018-01-30T08:35:42.075Z," 4.90"
2018-01-30T08:45:45.023Z," 5.25"
2018-01-30T08:50:44.160Z," 5.50"
2018-01-30T08:55:39.294Z," 5.62"
2018-01-30T09:00:39.093Z," 5.46"
2018-01-30T09:05:34.473Z," 5.57"
2018-01-30T09:10:35.102Z," 5.59"
2018-01-30T09:15:30.813Z," 5.54"
2018-01-30T09:25:34.168Z," 5.86"
2018-01-30T09:30:34.057Z," 5.84"
2018-01-30T09:35:32.869Z," 5.68"
2018-01-30T09:40:27.904Z," 6.02"
2018-01-30T09:45:27.503Z," 5.93"
2018-01-30T09:50:22.335Z," 5.98"
2018-01-30T09:55:23.063Z," 5.79"
2018-01-30T10:00:23.609Z," 5.93"
2018-01-30T10:05:20.262Z," 5.98"
2018-01-30T10:10:23.587Z," 6.12"
2018-01-30T10:15:21.662Z," 6.36"
2018-01-30T10:20:18.422Z," 6.56"
2018-01-30T10:25:17.974Z," 6.82"
2018-01-30T10:35:20.494Z," 6.75"
2018-01-30T10:40:19.239Z," 6.77"
2018-01-30T10:45:18.572Z," 6.72"
2018-01-30T10:50:17.483Z," 6.96"
2018-01-30T10:55:18.599Z," 6.93"
2018-01-30T11:00:18.077Z," 6.74"
2018-01-30T11:05:13.650Z," 6.85"
2018-01-30T11:10:12.940Z," 6.97"
2018-01-30T11:15:15.869Z," 6.88"
2018-01-30T11:20:17.211Z," 6.96"
2018-01-30T11:25:13.844Z," 6.95"
2018-01-30T11:30:10.051Z," 7.13"
2018-01-30T11:35:10.576Z," 7.15"
2018-01-30T11:40:12.632Z," 7.43"
2018-01-30T11:45:12.256Z," 7.39"
2018-01-30T11:50:14.880Z," 7.57"
2018-01-30T11:55:12.048Z," 7.57"
2018-01-30T12:00:11.452Z," 7.56"
2018-01-30T12:05:09.144Z," 7.70"
2018-01-30T12:10:06.567Z," 7.77"
2018-01-30T12:15:03.032Z," 7.80"
2018-01-30T12:19:59.608Z," 7.76"
2018-01-30T12:24:59.032Z," 7.61"
2018-01-30T12:29:57.763Z," 7.56"
2018-01-30T12:34:52.282Z," 7.56"
2018-01-30T12:39:50.035Z," 7.60"
2018-01-30T12:44:49.163Z," 7.60"
2018-01-30T12:49:46.087Z," 7.48"
2018-01-30T12:54:42.835Z," 7.45"
2018-01-30T12:59:42.399Z," 7.47"
2018-01-30T13:04:42.092Z," 7.51"
2018-01-30T13:09:40.825Z," 7.56"
2018-01-30T13:14:40.844Z," 7.79"
2018-01-30T13:19:36.378Z," 7.88"
2018-01-30T13:24:37.803Z," 8.13"
2018-01-30T13:29:38.699Z," 8.00"
2018-01-30T13:34:33.242Z," 7.95"
2018-01-30T13:39:32.589Z," 7.91"
2018-01-30T13:44:31.617Z," 7.98"
2018-01-30T13:49:32.735Z," 8.06"
2018-01-30T13:54:31.117Z," 8.10"
2018-01-30T14:04:30.228Z," 7.94"
2018-01-30T14:09:30.567Z," 7.83"
2018-01-30T14:14:26.597Z," 7.75"
2018-01-30T14:24:28.418Z," 7.51"
2018-01-30T14:29:27.133Z," 7.67"
2018-01-30T14:34:24.002Z," 7.61"
2018-01-30T14:39:24.252Z," 7.51"
2018-01-30T14:44:22.711Z," 7.53"
2018-01-30T14:49:21.490Z," 7.39"
2018-01-30T14:54:18.115Z," 7.25"
2018-01-30T14:59:13.580Z," 7.25"
2018-01-30T15:04:16.202Z," 7.05"
2018-01-30T15:09:15.586Z," 7.02"
2018-01-30T15:14:16.150Z," 6.89"
2018-01-30T15:19:15.752Z," 6.85"
2018-01-30T15:24:10.124Z," 6.67"
2018-01-30T15:29:10.961Z," 6.66"
2018-01-30T15:34:15.799Z," 6.62"
2018-01-30T15:44:17.731Z," 6.78"
2018-01-30T15:49:17.961Z," 6.69"
2018-01-30T15:54:19.272Z," 6.64"
2018-01-30T15:59:17.929Z," 6.67"
2018-01-30T16:04:14.450Z," 6.46"
2018-01-30T16:09:13.628Z," 6.31"
2018-01-30T16:14:13.735Z," 6.12"
2018-01-30T16:19:12.422Z," 6.11"
2018-01-30T16:24:11.252Z," 5.94"
2018-01-30T16:29:09.943Z," 5.89"
2018-01-30T16:34:11.187Z," 5.72"
2018-01-30T16:39:11.585Z," 5.72"
2018-01-30T16:44:07.622Z," 5.72"
2018-01-30T16:49:08.194Z," 5.57"
2018-01-30T16:54:07.982Z," 5.57"
2018-01-30T16:59:03.730Z," 5.59"
2018-01-30T17:03:59.397Z," 5.56"
2018-01-30T17:08:55.305Z," 5.59"
2018-01-30T17:13:56.153Z," 5.71"
2018-01-30T17:18:55.579Z," 5.66"
2018-01-30T17:23:57.120Z," 5.61"
2018-01-30T17:28:53.959Z," 5.59"
2018-01-30T17:33:57.116Z," 5.36"
2018-01-30T17:38:56.351Z," 5.44"
2018-01-30T17:43:55.832Z," 5.48"
2018-01-30T17:48:54.620Z," 5.36"
2018-01-30T17:53:53.379Z," 5.36"
2018-01-30T17:58:55.694Z," 5.28"
2018-01-30T18:03:55.827Z," 5.38"
2018-01-30T18:08:58.423Z," 5.38"
2018-01-30T18:13:59.328Z," 5.28"
2018-01-30T18:19:01.662Z," 5.25"
2018-01-30T18:24:01.577Z," 5.21"
2018-01-30T18:29:00.520Z," 5.20"
2018-01-30T18:34:00.120Z," 5.10"
2018-01-30T18:38:58.919Z," 5.15"
2018-01-30T18:43:54.203Z," 5.14"
2018-01-30T18:48:54.039Z," 5.11"
2018-01-30T18:53:57.006Z," 5.05"
2018-01-30T18:58:57.401Z," 5.07"
2018-01-30T19:03:52.175Z," 4.93"
2018-01-30T19:08:52.749Z," 4.86"
2018-01-30T19:13:51.263Z," 4.90"
2018-01-30T19:18:50.872Z," 4.66"
2018-01-30T19:23:49.708Z," 4.59"
2018-01-30T19:28:48.416Z," 4.48"
2018-01-30T19:33:47.367Z," 4.52"
2018-01-30T19:38:47.063Z," 4.40"
2018-01-30T19:43:45.624Z," 4.49"
2018-01-30T19:48:46.097Z," 4.53"
2018-01-30T19:53:45.356Z," 4.37"
2018-01-30T19:58:44.970Z," 4.44"
2018-01-30T20:03:43.506Z," 4.44"
2018-01-30T20:08:43.512Z," 4.55"
2018-01-30T20:13:42.026Z," 4.44"
2018-01-30T20:18:41.798Z," 4.38"
2018-01-30T20:23:40.203Z," 4.35"
2018-01-30T20:28:34.958Z," 4.34"
2018-01-30T20:33:31.769Z," 4.31"
2018-01-30T20:38:27.140Z," 4.49"
2018-01-30T20:43:23.910Z," 4.35"
2018-01-30T20:48:24.164Z," 4.23"
2018-01-30T20:53:24.663Z," 4.08"
2018-01-30T20:58:26.695Z," 4.13"
2018-01-30T21:03:21.865Z," 4.04"
2018-01-30T21:08:21.124Z," 4.23"
2018-01-30T21:13:19.954Z," 4.28"
2018-01-30T21:18:18.680Z," 4.17"
2018-01-30T21:23:17.471Z," 3.98"
2018-01-30T21:28:15.996Z," 4.02"
2018-01-30T21:33:12.320Z," 4.04"
2018-01-30T21:38:11.611Z," 4.16"
2018-01-30T21:43:11.417Z," 4.12"
2018-01-30T21:48:06.984Z," 4.12"
2018-01-30T21:53:03.734Z," 3.98"
2018-01-30T21:58:04.069Z," 4.05"
2018-01-30T22:03:00.874Z," 4.06"
2018-01-30T22:07:56.147Z," 4.20"
2018-01-30T22:12:51.978Z," 4.22"
2018-01-30T22:17:52.315Z," 4.08"
2018-01-30T22:22:50.830Z," 3.95"
2018-01-30T22:27:49.551Z," 3.92"
2018-01-30T22:32:48.397Z," 3.98"
2018-01-30T22:37:48.432Z," 4.14"
2018-01-30T22:42:47.055Z," 4.13"
